Time;durP1;ratioP1;P1;durP2;ratioP2;P2;SDS_P1;SDS_P2;PMS_P1;PMS_P2;Temp;Humidity;BMP_temperature;BMP_pressure;BME280_temperature;BME280_humidity;BME280_pressure;Samples;Min_cycle;Max_cycle;Signal;HPM_P1;HPM_P2
2023/10/25 00:01:07;;;;;;;7.93;1.08;;;;;;;6.95;100.00;91986.03;2124051;27;20053;-79
2023/10/25 00:02:28;;;;;;;8.23;1.38;;;;;;;6.87;100.00;91998.75;2120619;27;20072;-81
2023/10/25 00:03:48;;;;;;;13.15;1.38;;;;;;;6.58;100.00;91988.09;2121411;27;20091;-78
2023/10/25 00:05:09;;;;;;;3.03;0.90;;;;;;;6.82;100.00;91991.31;2133256;27;20495;-79
2023/10/25 00:06:29;;;;;;;8.75;1.10;;;;;;;6.82;100.00;91992.03;2132719;27;20054;-79
2023/10/25 00:07:49;;;;;;;3.72;1.20;;;;;;;6.89;100.00;91988.47;2133207;27;20050;-82
2023/10/25 00:09:10;;;;;;;1.00;0.95;;;;;;;6.82;100.00;91986.72;2133047;27;20360;-81
2023/10/25 00:10:30;;;;;;;1.95;1.00;;;;;;;6.72;100.00;91989.69;2129766;27;20580;-80
2023/10/25 00:11:51;;;;;;;4.70;1.20;;;;;;;6.80;100.00;91996.28;2129810;27;20515;-79
2023/10/25 00:13:11;;;;;;;1.15;1.05;;;;;;;6.71;100.00;91990.81;2121324;27;20023;-79
2023/10/25 00:14:31;;;;;;;1.15;1.05;;;;;;;6.82;100.00;91993.97;2123911;27;20065;-78
2023/10/25 00:15:51;;;;;;;1.20;1.10;;;;;;;6.75;100.00;91992.22;2129621;27;20023;-79
2023/10/25 00:17:12;;;;;;;3.13;1.27;;;;;;;6.78;100.00;92001.28;2129402;27;20023;-82
2023/10/25 00:18:32;;;;;;;1.00;0.90;;;;;;;6.74;100.00;92000.63;2129743;27;20075;-79
2023/10/25 00:19:52;;;;;;;0.90;0.90;;;;;;;6.76;100.00;92001.69;2121208;27;20019;-79
2023/10/25 00:21:13;;;;;;;1.42;1.20;;;;;;;6.83;100.00;91990.13;2123923;27;20470;-80
2023/10/25 00:22:33;;;;;;;0.80;0.80;;;;;;;6.88;100.00;91989.63;2129718;27;20034;-81
2023/10/25 00:23:53;;;;;;;0.88;0.80;;;;;;;6.84;100.00;91990.88;2129700;27;20034;-79
2023/10/25 00:25:14;;;;;;;2.25;0.90;;;;;;;6.89;100.00;91995.66;2133108;27;20098;-79
2023/10/25 00:26:34;;;;;;;1.15;1.05;;;;;;;6.76;100.00;91985.75;2132610;27;20042;-80
2023/10/25 00:27:55;;;;;;;0.80;0.80;;;;;;;6.85;100.00;91990.47;2132542;27;20023;-79
2023/10/25 00:29:15;;;;;;;1.02;0.93;;;;;;;6.92;100.00;91984.22;2129669;27;20097;-80
2023/10/25 00:30:35;;;;;;;1.38;1.23;;;;;;;6.86;100.00;91986.66;2132932;27;20027;-79
2023/10/25 00:31:56;;;;;;;1.10;1.10;;;;;;;6.93;100.00;91988.34;2132563;27;20453;-79
2023/10/25 00:33:16;;;;;;;1.23;1.13;;;;;;;6.95;100.00;91991.34;2132555;27;20381;-79
2023/10/25 00:34:37;;;;;;;1.20;1.10;;;;;;;6.89;100.00;91993.00;2132899;27;20023;-81
2023/10/25 00:35:57;;;;;;;6.68;1.13;;;;;;;6.86;100.00;91997.28;2133209;27;20027;-79
2023/10/25 00:37:17;;;;;;;1.80;1.15;;;;;;;6.93;100.00;91991.00;2132557;27;20061;-80
2023/10/25 00:38:38;;;;;;;1.30;1.20;;;;;;;6.92;100.00;91990.28;2132473;27;20068;-78
2023/10/25 00:39:59;;;;;;;2.78;1.35;;;;;;;6.95;100.00;91986.78;2132897;27;20027;-79
2023/10/25 00:41:19;;;;;;;1.08;1.08;;;;;;;6.87;100.00;91980.16;2132485;27;20049;-80
2023/10/25 00:42:39;;;;;;;1.33;1.15;;;;;;;7.00;100.00;91970.31;2129582;27;20046;-80
2023/10/25 00:44:00;;;;;;;1.17;1.13;;;;;;;6.85;100.00;91985.16;2129533;27;20050;-81
2023/10/25 00:45:20;;;;;;;1.40;1.30;;;;;;;6.85;100.00;91987.81;2129440;27;20042;-79
2023/10/25 00:46:41;;;;;;;1.55;1.40;;;;;;;6.93;100.00;91993.66;2132382;27;20547;-79
2023/10/25 00:48:02;;;;;;;1.20;1.10;;;;;;;7.07;100.00;91996.72;2132659;27;20458;-78
2023/10/25 00:49:23;;;;;;;5.43;1.67;;;;;;;6.99;100.00;91992.00;2132433;27;20469;-81
2023/10/25 00:50:44;;;;;;;1.40;1.20;;;;;;;7.06;100.00;91995.19;2132772;27;20114;-78
2023/10/25 00:52:05;;;;;;;1.35;1.25;;;;;;;7.09;100.00;91998.19;2132336;27;20050;-79
2023/10/25 00:53:26;;;;;;;2.13;1.67;;;;;;;7.09;100.00;91998.19;2123987;27;20039;-79
2023/10/25 00:54:47;;;;;;;1.63;1.40;;;;;;;7.15;100.00;91994.59;2119016;27;20031;-79
2023/10/25 00:56:11;;;;;;;4.15;1.73;;;;;;;7.15;100.00;91996.50;2124268;27;20027;-81
2023/10/25 00:57:32;;;;;;;1.80;1.65;;;;;;;7.22;100.00;91991.75;2123832;27;20027;-78
2023/10/25 00:58:56;;;;;;;2.38;1.60;;;;;;;7.20;100.00;91988.78;2123873;27;20027;-80
2023/10/25 01:00:16;;;;;;;2.42;2.00;;;;;;;7.21;100.00;91995.59;2124366;27;20097;-80
2023/10/25 01:01:37;;;;;;;2.83;2.28;;;;;;;7.34;100.00;91986.91;2123866;27;20179;-81
2023/10/25 01:03:03;;;;;;;3.22;2.80;;;;;;;7.37;100.00;91989.44;2124136;27;20557;-82
2023/10/25 01:04:23;;;;;;;4.22;2.30;;;;;;;7.36;100.00;91977.31;2123716;27;20469;-79
2023/10/25 01:05:44;;;;;;;3.80;2.72;;;;;;;7.40;100.00;91985.94;2123854;27;20100;-80
2023/10/25 01:07:04;;;;;;;3.22;2.63;;;;;;;7.52;100.00;91987.88;2124077;27;20023;-79
2023/10/25 01:08:24;;;;;;;3.50;2.88;;;;;;;7.50;100.00;91990.19;2115231;28;20019;-80
2023/10/25 01:09:44;;;;;;;9.48;3.30;;;;;;;7.54;100.00;91987.44;2117948;27;20490;-79
2023/10/25 01:11:05;;;;;;;4.30;3.30;;;;;;;7.51;100.00;91988.31;2124138;27;20080;-79
2023/10/25 01:12:25;;;;;;;12.05;2.90;;;;;;;7.48;100.00;91992.56;2124363;27;20488;-80
2023/10/25 01:13:46;;;;;;;4.80;3.40;;;;;;;7.61;100.00;91978.53;2115620;28;20031;-80
2023/10/25 01:15:06;;;;;;;8.10;3.78;;;;;;;7.66;100.00;91985.97;2115445;28;20026;-79
2023/10/25 01:16:26;;;;;;;10.23;3.38;;;;;;;7.52;100.00;91982.56;2115591;28;20024;-82
2023/10/25 01:17:47;;;;;;;10.60;3.90;;;;;;;7.65;100.00;91985.25;2115128;28;20027;-80
2023/10/25 01:19:08;;;;;;;11.98;3.67;;;;;;;7.65;100.00;91984.50;2115624;28;20050;-80
2023/10/25 01:20:32;;;;;;;13.60;3.63;;;;;;;7.79;100.00;91973.44;2115751;28;20545;-81
2023/10/25 01:21:52;;;;;;;7.05;3.65;;;;;;;7.76;100.00;91979.59;2115680;28;20019;-80
2023/10/25 01:23:13;;;;;;;14.48;4.18;;;;;;;7.78;100.00;91985.25;2115793;28;20016;-78
2023/10/25 01:24:33;;;;;;;10.85;3.92;;;;;;;7.86;100.00;91975.13;2115116;28;20107;-81
2023/10/25 01:25:54;;;;;;;10.68;4.00;;;;;;;7.89;100.00;91980.34;2115471;28;20061;-80
2023/10/25 01:27:14;;;;;;;7.95;4.32;;;;;;;7.91;100.00;91974.59;2115035;28;20835;-78
2023/10/25 01:28:34;;;;;;;8.52;4.32;;;;;;;7.78;100.00;91969.28;2115298;28;20019;-81
2023/10/25 01:29:54;;;;;;;12.98;4.30;;;;;;;7.81;100.00;91976.41;2114443;28;20023;-80
2023/10/25 01:31:15;;;;;;;7.78;4.43;;;;;;;8.01;100.00;91976.94;2115698;28;20412;-78
2023/10/25 01:32:35;;;;;;;7.22;4.35;;;;;;;7.97;100.00;91981.63;2115123;28;20092;-79
2023/10/25 01:33:56;;;;;;;9.02;3.92;;;;;;;8.02;100.00;91978.41;2117645;27;20015;-79
2023/10/25 01:35:16;;;;;;;5.68;4.38;;;;;;;7.97;100.00;91978.97;2120504;27;20101;-79
2023/10/25 01:36:37;;;;;;;8.23;4.13;;;;;;;7.92;100.00;91976.09;2123811;27;20027;-81
2023/10/25 01:37:58;;;;;;;6.22;3.80;;;;;;;7.91;100.00;91964.72;2124079;27;20031;-78
2023/10/25 01:39:18;;;;;;;7.75;3.83;;;;;;;8.00;100.00;91972.06;2124109;27;20082;-78
2023/10/25 01:40:38;;;;;;;7.88;3.58;;;;;;;7.92;100.00;91966.19;2115369;28;20031;-79
2023/10/25 01:41:58;;;;;;;5.75;3.92;;;;;;;7.89;100.00;91964.38;2114647;27;20030;-79
2023/10/25 01:43:19;;;;;;;5.20;4.15;;;;;;;7.74;100.00;91966.72;2120732;27;20019;-79
2023/10/25 01:44:39;;;;;;;4.88;3.75;;;;;;;7.82;100.00;91968.00;2123821;27;20023;-79
2023/10/25 01:45:59;;;;;;;6.75;3.80;;;;;;;7.80;100.00;91970.34;2123607;27;20493;-80
2023/10/25 01:47:19;;;;;;;6.25;3.78;;;;;;;7.94;100.00;91965.75;2123862;27;20035;-78
2023/10/25 01:48:39;;;;;;;7.60;3.90;;;;;;;7.96;100.00;91960.78;2123364;27;20047;-80
2023/10/25 01:50:00;;;;;;;12.70;4.40;;;;;;;7.78;100.00;91962.06;2123500;27;20058;-81
2023/10/25 01:51:20;;;;;;;4.13;3.50;;;;;;;7.93;100.00;91961.63;2123941;27;20660;-81
2023/10/25 01:52:41;;;;;;;5.38;4.05;;;;;;;7.91;100.00;91959.38;2123986;27;20419;-79
2023/10/25 01:54:01;;;;;;;6.93;3.75;;;;;;;7.90;100.00;91968.53;2120104;27;20478;-79
2023/10/25 01:55:21;;;;;;;6.20;4.20;;;;;;;7.97;100.00;91967.56;2115243;28;20472;-79
2023/10/25 01:56:42;;;;;;;5.50;4.07;;;;;;;7.90;100.00;91959.78;2114837;28;20024;-81
2023/10/25 01:58:02;;;;;;;10.25;4.35;;;;;;;7.89;100.00;91961.72;2112030;28;20132;-79
2023/10/25 01:59:23;;;;;;;5.78;3.70;;;;;;;7.73;100.00;91959.19;2120392;27;20494;-80
2023/10/25 02:00:43;;;;;;;5.45;3.90;;;;;;;7.91;100.00;91954.06;2114776;28;20042;-79
2023/10/25 02:02:04;;;;;;;4.65;3.65;;;;;;;7.68;100.00;91949.06;2115202;28;20024;-79
2023/10/25 02:03:24;;;;;;;4.20;3.25;;;;;;;7.91;100.00;91953.31;2114738;28;20039;-80
2023/10/25 02:04:45;;;;;;;5.97;3.63;;;;;;;7.86;100.00;91957.25;2111747;28;20080;-80
2023/10/25 02:06:16;;;;;;;5.18;3.63;;;;;;;7.91;100.00;91950.66;2115817;27;20019;-79
2023/10/25 02:07:35;;;;;;;;;;;;;;;7.77;100.00;91943.84;2122476;27;20023;-79
2023/10/25 02:08:56;;;;;;;;;;;;;;;7.74;100.00;91945.44;2124128;27;19994;-79
2023/10/25 02:10:18;;;;;;;4.25;2.90;;;;;;;7.87;100.00;91942.03;2123702;27;19911;-82
2023/10/25 02:11:39;;;;;;;4.10;3.10;;;;;;;7.78;100.00;91938.09;2123804;27;20499;-78
2023/10/25 02:12:59;;;;;;;3.25;2.83;;;;;;;7.66;100.00;91946.09;2123775;27;20042;-78
2023/10/25 02:14:20;;;;;;;4.28;2.85;;;;;;;7.73;100.00;91943.97;2123263;27;20144;-81
2023/10/25 02:15:40;;;;;;;5.20;2.78;;;;;;;7.82;100.00;91940.66;2122927;27;20019;-79
2023/10/25 02:17:00;;;;;;;4.22;2.95;;;;;;;7.79;100.00;91944.16;2113691;28;20023;-80
2023/10/25 02:18:21;;;;;;;3.58;3.10;;;;;;;7.75;100.00;91938.22;2111789;28;20023;-80
2023/10/25 02:19:41;;;;;;;4.35;3.28;;;;;;;7.82;100.00;91938.00;2111836;28;20020;-79
2023/10/25 02:21:03;;;;;;;3.95;3.20;;;;;;;7.94;100.00;91939.16;2114550;28;20185;-79
2023/10/25 02:22:24;;;;;;;4.50;3.55;;;;;;;7.95;100.00;91933.41;2119024;27;20595;-79
2023/10/25 02:23:44;;;;;;;11.20;3.85;;;;;;;7.91;100.00;91935.44;2122402;27;20532;-78
2023/10/25 02:25:05;;;;;;;4.60;3.75;;;;;;;7.98;100.00;91926.47;2122451;27;20491;-79
2023/10/25 02:26:27;;;;;;;3.72;2.72;;;;;;;7.84;100.00;91927.66;2122904;27;20101;-78
2023/10/25 02:27:47;;;;;;;4.57;3.30;;;;;;;7.83;100.00;91928.84;2123123;27;20508;-79
2023/10/25 02:29:07;;;;;;;6.68;3.30;;;;;;;7.78;100.00;91924.81;2122449;27;20919;-80
2023/10/25 02:30:28;;;;;;;5.32;3.38;;;;;;;7.97;100.00;91923.09;2123475;27;20431;-79
2023/10/25 02:31:48;;;;;;;5.63;3.92;;;;;;;7.90;100.00;91922.56;2123770;27;20027;-80
2023/10/25 02:33:09;;;;;;;5.43;3.67;;;;;;;7.75;100.00;91916.94;2123309;27;20080;-79
2023/10/25 02:34:31;;;;;;;5.85;3.67;;;;;;;7.70;100.00;91912.16;2123574;27;20050;-78
2023/10/25 02:35:54;;;;;;;5.45;3.35;;;;;;;7.63;100.00;91920.34;2122926;27;20046;-80
2023/10/25 02:37:15;;;;;;;6.63;3.38;;;;;;;7.73;100.00;91908.66;2122936;27;20046;-80
2023/10/25 02:38:35;;;;;;;5.05;3.33;;;;;;;7.68;100.00;91907.28;2122975;27;20143;-78
2023/10/25 02:39:57;;;;;;;6.45;3.40;;;;;;;7.77;100.00;91906.59;2122010;27;20080;-79
2023/10/25 02:41:18;;;;;;;5.72;3.15;;;;;;;7.93;100.00;91911.06;2123186;27;20677;-80
2023/10/25 02:42:42;;;;;;;5.22;3.70;;;;;;;8.12;100.00;91915.41;2123038;27;20034;-80
2023/10/25 02:44:02;;;;;;;5.18;3.28;;;;;;;8.06;100.00;91906.47;2123416;27;20031;-79
2023/10/25 02:45:23;;;;;;;4.53;3.47;;;;;;;8.02;100.00;91911.88;2122990;27;20023;-81
2023/10/25 02:46:43;;;;;;;4.35;3.28;;;;;;;7.97;100.00;91917.03;2123327;27;20023;-79
2023/10/25 02:48:11;;;;;;;5.22;3.40;;;;;;;8.07;100.00;91908.69;2122707;27;20047;-79
2023/10/25 02:49:31;;;;;;;3.97;3.25;;;;;;;8.12;100.00;91907.44;2112748;28;20085;-80
2023/10/25 02:50:51;;;;;;;4.53;3.63;;;;;;;8.00;100.00;91906.28;2120187;27;20031;-81
2023/10/25 02:52:12;;;;;;;5.03;3.90;;;;;;;7.86;100.00;91898.75;2122886;28;20041;-80
2023/10/25 02:53:33;;;;;;;5.60;3.92;;;;;;;7.82;100.00;91900.75;2123402;27;20046;-80
2023/10/25 02:54:55;;;;;;;5.72;4.05;;;;;;;7.96;100.00;91895.00;2123097;28;20035;-79
2023/10/25 02:56:15;;;;;;;5.47;3.85;;;;;;;8.07;100.00;91897.31;2120231;28;20026;-81
2023/10/25 02:57:35;;;;;;;5.43;3.70;;;;;;;8.01;100.00;91899.03;2120026;28;20050;-81
2023/10/25 02:58:56;;;;;;;3.78;3.38;;;;;;;8.13;100.00;91895.59;2123000;28;20061;-79
2023/10/25 03:00:16;;;;;;;5.25;3.97;;;;;;;8.10;100.00;91896.44;2123323;28;20060;-80
2023/10/25 03:01:37;;;;;;;4.95;3.55;;;;;;;7.91;100.00;91895.53;2127350;27;20023;-78
2023/10/25 03:02:57;;;;;;;5.57;3.65;;;;;;;7.94;100.00;91894.66;2131853;27;20146;-81
2023/10/25 03:04:18;;;;;;;5.82;3.67;;;;;;;8.05;100.00;91889.00;2131508;27;20058;-79
2023/10/25 03:05:38;;;;;;;4.32;3.45;;;;;;;8.04;100.00;91888.28;2131507;27;20492;-79
2023/10/25 03:06:58;;;;;;;5.93;3.53;;;;;;;7.92;100.00;91885.63;2131487;27;20457;-80
2023/10/25 03:08:19;;;;;;;4.07;3.40;;;;;;;7.88;100.00;91896.38;2128600;27;20023;-79
2023/10/25 03:09:39;;;;;;;4.15;3.38;;;;;;;8.05;100.00;91892.41;2128553;27;20384;-81
2023/10/25 03:11:00;;;;;;;5.60;3.83;;;;;;;7.90;100.00;91891.41;2131902;27;20022;-81
2023/10/25 03:12:20;;;;;;;4.63;3.60;;;;;;;7.93;100.00;91893.19;2130535;27;20031;-80
2023/10/25 03:13:41;;;;;;;4.22;3.75;;;;;;;7.92;100.00;91882.97;2130978;27;20022;-80
2023/10/25 03:15:01;;;;;;;3.85;3.45;;;;;;;7.95;100.00;91890.09;2131228;27;20464;-81
2023/10/25 03:16:21;;;;;;;4.32;3.22;;;;;;;7.92;100.00;91886.38;2113569;28;20401;-79
2023/10/25 03:17:42;;;;;;;4.00;3.60;;;;;;;8.00;100.00;91892.22;2113538;28;20552;-79
2023/10/25 03:19:02;;;;;;;3.97;3.25;;;;;;;7.76;100.00;91891.81;2114025;28;20028;-78
2023/10/25 03:20:23;;;;;;;4.15;3.50;;;;;;;7.75;100.00;91890.34;2114423;28;20058;-80
2023/10/25 03:21:43;;;;;;;4.05;3.60;;;;;;;7.70;100.00;91896.19;2111510;28;20027;-80
2023/10/25 03:23:04;;;;;;;4.85;3.60;;;;;;;7.87;100.00;91884.25;2111442;28;20034;-79
2023/10/25 03:24:24;;;;;;;4.97;3.50;;;;;;;7.85;100.00;91891.16;2111250;28;20432;-80
2023/10/25 03:25:44;;;;;;;3.90;3.50;;;;;;;7.82;100.00;91885.53;2111369;28;20386;-79
2023/10/25 03:27:07;;;;;;;5.15;3.70;;;;;;;7.81;100.00;91891.28;2114762;28;20529;-78
2023/10/25 03:28:27;;;;;;;6.53;3.67;;;;;;;7.91;100.00;91882.22;2114377;28;20032;-79
2023/10/25 03:29:48;;;;;;;3.85;3.28;;;;;;;7.86;100.00;91885.44;2114673;28;20104;-78
2023/10/25 03:31:10;;;;;;;5.13;3.60;;;;;;;7.90;100.00;91879.97;2114414;28;20106;-79
2023/10/25 03:32:30;;;;;;;4.30;3.70;;;;;;;7.93;100.00;91873.81;2114767;28;20019;-82
2023/10/25 03:33:50;;;;;;;4.55;4.00;;;;;;;8.11;100.00;91867.91;2114288;28;20027;-80
2023/10/25 03:35:11;;;;;;;5.10;3.78;;;;;;;7.95;100.00;91864.25;2111588;28;20023;-79
2023/10/25 03:36:31;;;;;;;4.22;3.50;;;;;;;7.94;100.00;91862.72;2114550;28;20032;-80
2023/10/25 03:37:52;;;;;;;3.95;3.58;;;;;;;8.04;100.00;91860.91;2114302;28;20098;-81
2023/10/25 03:39:17;;;;;;;5.72;3.40;;;;;;;7.99;100.00;91864.09;2114334;28;20530;-80
2023/10/25 03:40:38;;;;;;;4.75;3.80;;;;;;;7.82;100.00;91860.88;2112047;28;20090;-80
2023/10/25 03:41:58;;;;;;;4.28;3.65;;;;;;;7.88;100.00;91863.72;2114717;28;20107;-79
2023/10/25 03:43:19;;;;;;;3.97;3.45;;;;;;;8.15;100.00;91857.91;2114879;28;20027;-79
2023/10/25 03:44:39;;;;;;;4.00;3.40;;;;;;;8.12;100.00;91858.75;2123119;27;20069;-80
2023/10/25 03:46:04;;;;;;;4.10;3.45;;;;;;;8.10;100.00;91869.09;2131762;27;20674;-79
2023/10/25 03:47:25;;;;;;;4.22;3.70;;;;;;;8.13;100.00;91858.34;2131889;27;20022;-79
2023/10/25 03:48:46;;;;;;;4.05;3.35;;;;;;;7.96;100.00;91862.31;2131284;27;20184;-79
2023/10/25 03:50:06;;;;;;;;;;;;;;;7.95;100.00;91864.25;2131791;27;20030;-79
2023/10/25 03:51:27;;;;;;;3.63;3.25;;;;;;;8.00;100.00;91869.00;2128417;27;19915;-80
2023/10/25 03:52:47;;;;;;;3.75;3.35;;;;;;;8.04;100.00;91856.34;2128640;27;20054;-79
2023/10/25 03:54:07;;;;;;;3.75;2.97;;;;;;;8.14;100.00;91862.47;2129927;27;20078;-80
2023/10/25 03:55:28;;;;;;;3.97;3.50;;;;;;;7.75;100.00;91863.75;2129964;27;20040;-80
2023/10/25 03:56:48;;;;;;;3.30;2.90;;;;;;;7.71;100.00;91865.75;2121643;27;20019;-80
2023/10/25 03:58:08;;;;;;;4.93;3.78;;;;;;;7.74;100.00;91863.00;2124142;27;20019;-79
2023/10/25 03:59:29;;;;;;;4.90;3.67;;;;;;;7.65;100.00;91867.47;2133238;27;20023;-78
2023/10/25 04:00:59;;;;;;;3.53;2.90;;;;;;;7.69;100.00;91860.88;2133369;27;20128;-78
2023/10/25 04:02:20;;;;;;;12.48;8.75;;;;;;;7.60;100.00;91860.78;2132806;27;20019;-79
2023/10/25 04:03:41;;;;;;;7.78;6.97;;;;;;;7.69;100.00;91866.19;2133194;27;20042;-79
2023/10/25 04:05:01;;;;;;;6.55;5.07;;;;;;;7.78;100.00;91865.56;2130520;27;20026;-79
2023/10/25 04:06:22;;;;;;;6.65;6.05;;;;;;;7.76;100.00;91854.59;2116328;28;20044;-80
2023/10/25 04:07:42;;;;;;;5.60;5.10;;;;;;;7.63;100.00;91865.22;2115702;28;20051;-78
2023/10/25 04:09:03;;;;;;;5.85;4.72;;;;;;;7.66;100.00;91863.66;2116084;28;20034;-80
2023/10/25 04:10:23;;;;;;;4.30;3.88;;;;;;;7.67;100.00;91857.16;2115545;28;20019;-78
2023/10/25 04:11:44;;;;;;;4.68;3.85;;;;;;;7.63;100.00;91851.19;2116001;28;20421;-79
2023/10/25 04:13:04;;;;;;;6.68;4.00;;;;;;;7.65;100.00;91848.88;2115861;28;20049;-78
2023/10/25 04:14:25;;;;;;;4.55;3.72;;;;;;;7.75;100.00;91848.53;2115651;28;20579;-81
2023/10/25 04:16:00;;;;;;;4.22;3.83;;;;;;;7.89;100.00;91843.91;2120032;27;20479;-78
2023/10/25 04:17:20;;;;;;;4.72;4.07;;;;;;;7.87;100.00;91847.00;2124067;27;20031;-78
2023/10/25 04:18:40;;;;;;;4.85;4.00;;;;;;;7.75;100.00;91837.13;2121214;27;20022;-79
2023/10/25 04:20:01;;;;;;;5.60;3.92;;;;;;;7.80;100.00;91841.91;2124110;27;20030;-79
2023/10/25 04:21:22;;;;;;;7.25;4.22;;;;;;;7.76;100.00;91839.34;2124111;27;20031;-79
2023/10/25 04:22:42;;;;;;;9.82;4.60;;;;;;;7.62;100.00;91839.81;2121025;27;20102;-78
2023/10/25 04:24:03;;;;;;;4.70;4.22;;;;;;;7.56;100.00;91833.56;2124470;27;20066;-80
2023/10/25 04:25:23;;;;;;;7.82;4.53;;;;;;;7.62;100.00;91836.41;2124031;27;20019;-81
2023/10/25 04:26:43;;;;;;;9.15;4.60;;;;;;;7.69;100.00;91828.22;2121084;27;20029;-79
2023/10/25 04:28:05;;;;;;;6.85;4.85;;;;;;;7.65;100.00;91822.28;2124001;27;20023;-78
2023/10/25 04:29:25;;;;;;;6.07;4.97;;;;;;;7.70;100.00;91822.47;2121633;27;20496;-80
2023/10/25 04:30:46;;;;;;;7.32;5.20;;;;;;;7.73;100.00;91826.94;2118150;27;20438;-79
2023/10/25 04:32:06;;;;;;;9.65;6.05;;;;;;;7.76;100.00;91820.00;2124467;27;20046;-79
2023/10/25 04:33:27;;;;;;;10.98;7.13;;;;;;;7.78;100.00;91815.00;2124017;27;20401;-80
2023/10/25 04:34:47;;;;;;;8.48;5.40;;;;;;;7.69;100.00;91817.59;2122502;27;20088;-81
2023/10/25 04:36:08;;;;;;;7.45;5.40;;;;;;;7.61;100.00;91818.97;2121485;27;20023;-80
2023/10/25 04:37:28;;;;;;;5.47;4.90;;;;;;;7.79;100.00;91814.56;2118241;27;20088;-82
2023/10/25 04:38:49;;;;;;;6.95;5.80;;;;;;;7.81;100.00;91816.78;2124318;27;20098;-78
2023/10/25 04:40:10;;;;;;;6.85;5.20;;;;;;;7.87;100.00;91817.75;2124021;27;20019;-79
2023/10/25 04:41:31;;;;;;;10.48;5.47;;;;;;;7.80;100.00;91810.72;2121053;27;20023;-79
2023/10/25 04:42:53;;;;;;;7.70;5.55;;;;;;;7.80;100.00;91807.34;2124312;27;20051;-78
2023/10/25 04:44:14;;;;;;;7.22;5.47;;;;;;;7.87;100.00;91809.03;2124655;27;20028;-79
2023/10/25 04:45:35;;;;;;;7.88;5.50;;;;;;;7.99;100.00;91802.91;2124564;27;20022;-78
2023/10/25 04:46:55;;;;;;;11.80;6.63;;;;;;;8.08;100.00;91803.00;2124428;27;20168;-77
2023/10/25 04:48:16;;;;;;;7.10;5.55;;;;;;;8.08;100.00;91795.03;2123277;27;20088;-80
2023/10/25 04:49:36;;;;;;;8.88;5.45;;;;;;;7.99;100.00;91792.25;2121052;27;20102;-78
2023/10/25 04:50:57;;;;;;;9.98;6.00;;;;;;;8.03;100.00;91790.22;2120779;27;20417;-77
2023/10/25 04:52:19;;;;;;;10.52;7.30;;;;;;;8.15;100.00;91789.44;2123786;27;20440;-79
2023/10/25 04:53:40;;;;;;;10.15;6.53;;;;;;;8.11;100.00;91788.81;2121167;27;20019;-77
2023/10/25 04:55:00;;;;;;;9.93;7.30;;;;;;;8.10;100.00;91791.91;2123967;27;20079;-80
2023/10/25 04:56:22;;;;;;;10.70;7.55;;;;;;;8.17;100.00;91791.69;2131961;27;20023;-78
2023/10/25 04:57:43;;;;;;;9.98;6.75;;;;;;;8.05;100.00;91788.63;2132968;27;20484;-79
2023/10/25 04:59:04;;;;;;;9.88;6.32;;;;;;;8.09;100.00;91780.53;2132270;27;20030;-78
2023/10/25 05:00:24;;;;;;;10.48;7.20;;;;;;;8.26;100.00;91781.09;2132715;27;20071;-80
2023/10/25 05:01:44;;;;;;;11.55;7.15;;;;;;;8.20;100.00;91780.91;2133022;27;20034;-79
2023/10/25 05:03:09;;;;;;;10.40;7.32;;;;;;;8.23;100.00;91780.03;2132998;27;20022;-80
2023/10/25 05:04:30;;;;;;;11.82;7.30;;;;;;;8.14;100.00;91781.91;2133213;27;20027;-79
2023/10/25 05:05:51;;;;;;;11.38;7.45;;;;;;;8.09;100.00;91780.53;2132396;27;20025;-79
2023/10/25 05:07:11;;;;;;;9.20;7.00;;;;;;;8.14;100.00;91782.63;2132760;27;20019;-78
2023/10/25 05:08:33;;;;;;;10.10;7.18;;;;;;;8.10;100.00;91790.00;2132316;27;20493;-77
2023/10/25 05:09:53;;;;;;;11.35;7.45;;;;;;;8.12;100.00;91789.56;2123780;27;20019;-78
2023/10/25 05:11:16;;;;;;;11.43;7.65;;;;;;;8.04;100.00;91789.81;2129503;27;20105;-79
2023/10/25 05:12:39;;;;;;;12.02;8.30;;;;;;;8.39;100.00;91778.41;2132616;27;20026;-83
2023/10/25 05:14:00;;;;;;;10.27;7.25;;;;;;;8.34;100.00;91785.00;2134106;27;20023;-78
2023/10/25 05:15:20;;;;;;;13.85;7.90;;;;;;;8.50;100.00;91789.41;2129899;27;20027;-80
2023/10/25 05:16:41;;;;;;;13.55;8.82;;;;;;;8.24;100.00;91783.44;2129132;27;20022;-78
2023/10/25 05:18:01;;;;;;;12.80;8.52;;;;;;;8.34;100.00;91779.69;2118686;27;20016;-78
2023/10/25 05:19:22;;;;;;;21.13;10.35;;;;;;;8.25;100.00;91774.28;2115715;28;20023;-79
2023/10/25 05:20:43;;;;;;;15.65;9.52;;;;;;;8.20;100.00;91770.25;2115046;28;20030;-79
2023/10/25 05:22:11;;;;;;;14.30;9.07;;;;;;;8.26;100.00;91768.53;2115561;28;20544;-78
2023/10/25 05:23:33;;;;;;;15.68;10.00;;;;;;;8.14;100.00;91769.34;2115163;28;20034;-79
2023/10/25 05:24:54;;;;;;;16.98;9.48;;;;;;;8.15;100.00;91770.06;2115532;28;20519;-78
2023/10/25 05:26:15;;;;;;;16.55;8.88;;;;;;;8.32;100.00;91768.72;2115640;28;20027;-79
2023/10/25 05:27:37;;;;;;;11.15;7.72;;;;;;;8.28;100.00;91762.78;2115725;28;20047;-78
2023/10/25 05:28:57;;;;;;;13.00;7.90;;;;;;;8.18;100.00;91769.97;2115647;28;20023;-79
2023/10/25 05:30:20;;;;;;;16.83;9.13;;;;;;;8.08;100.00;91779.78;2114965;28;20062;-77
2023/10/25 05:31:42;;;;;;;22.27;8.77;;;;;;;8.23;100.00;91771.31;2112534;28;20024;-78
2023/10/25 05:33:07;;;;;;;108.90;39.25;;;;;;;8.22;100.00;91772.50;2112436;28;20076;-78
2023/10/25 05:34:27;;;;;;;347.50;126.03;;;;;;;8.44;100.00;91775.19;2112682;28;20533;-80
2023/10/25 05:35:48;;;;;;;80.72;32.40;;;;;;;8.47;100.00;91774.28;2115081;28;20023;-78
2023/10/25 05:37:08;;;;;;;23.30;12.55;;;;;;;8.49;100.00;91766.63;2109408;28;20058;-80
2023/10/25 05:38:29;;;;;;;23.80;12.80;;;;;;;8.61;100.00;91760.50;2115172;28;20057;-79
2023/10/25 05:39:50;;;;;;;24.67;13.88;;;;;;;8.68;100.00;91762.16;2114877;28;20027;-78
2023/10/25 05:41:17;;;;;;;17.25;10.32;;;;;;;8.60;100.00;91758.25;2112137;28;20030;-77
2023/10/25 05:42:48;;;;;;;23.00;10.50;;;;;;;8.56;100.00;91751.16;2115243;28;20028;-78
2023/10/25 05:44:15;;;;;;;27.00;13.95;;;;;;;8.46;100.00;91752.25;2130767;27;20031;-79
2023/10/25 05:45:36;;;;;;;26.95;16.05;;;;;;;8.54;100.00;91753.50;2123632;27;20422;-80
2023/10/25 05:46:57;;;;;;;21.02;12.48;;;;;;;8.41;100.00;91739.50;2129510;27;20038;-80
2023/10/25 05:48:17;;;;;;;29.13;14.73;;;;;;;8.49;100.00;91748.72;2131798;27;20042;-77
2023/10/25 05:49:38;;;;;;;24.45;12.07;;;;;;;8.42;100.00;91740.25;2129094;27;20044;-80
2023/10/25 05:51:02;;;;;;;21.00;10.73;;;;;;;8.52;100.00;91747.88;2132324;27;20034;-79
2023/10/25 05:52:23;;;;;;;22.45;10.00;;;;;;;8.58;100.00;91737.38;2132535;27;20055;-77
2023/10/25 05:53:46;;;;;;;34.17;15.85;;;;;;;8.62;100.00;91742.59;2131940;27;20022;-78
2023/10/25 05:55:06;;;;;;;22.42;11.93;;;;;;;8.53;100.00;91743.28;2123546;27;20026;-79
2023/10/25 05:56:27;;;;;;;22.00;11.60;;;;;;;8.68;100.00;91744.22;2129214;27;20504;-80
2023/10/25 05:57:48;;;;;;;29.38;13.52;;;;;;;8.67;100.00;91734.03;2131951;27;20045;-77
2023/10/25 05:59:09;;;;;;;25.02;12.05;;;;;;;8.80;100.00;91729.34;2132046;27;20095;-78
2023/10/25 06:00:29;;;;;;;20.80;11.27;;;;;;;8.94;100.00;91736.81;2131848;27;20700;-79
2023/10/25 06:02:14;;;;;;;24.85;11.18;;;;;;;8.81;100.00;91723.56;2129161;27;20027;-79
2023/10/25 06:03:35;;;;;;;20.85;11.23;;;;;;;8.82;100.00;91729.63;2131986;27;20011;-80
2023/10/25 06:04:56;;;;;;;24.05;12.75;;;;;;;8.70;100.00;91727.84;2126103;27;20023;-77
2023/10/25 06:06:19;;;;;;;27.60;13.18;;;;;;;8.65;100.00;91731.81;2130184;27;20026;-77
2023/10/25 06:07:40;;;;;;;23.80;12.30;;;;;;;8.56;100.00;91732.50;2129928;27;20453;-81
2023/10/25 06:09:01;;;;;;;29.88;13.30;;;;;;;8.55;100.00;91732.94;2128892;27;20026;-79
2023/10/25 06:10:21;;;;;;;30.75;15.02;;;;;;;8.51;100.00;91732.31;2131685;27;20041;-80
2023/10/25 06:11:42;;;;;;;25.52;13.85;;;;;;;8.52;100.00;91731.88;2131775;27;20023;-77
2023/10/25 06:13:03;;;;;;;24.08;12.20;;;;;;;8.40;100.00;91726.66;2132221;27;20018;-77
2023/10/25 06:14:23;;;;;;;29.13;13.90;;;;;;;8.47;100.00;91723.72;2131766;27;20019;-79
2023/10/25 06:15:45;;;;;;;26.13;12.40;;;;;;;8.64;100.00;91724.25;2131047;27;20408;-78
2023/10/25 06:17:05;;;;;;;24.85;13.35;;;;;;;8.75;100.00;91724.59;2131611;27;20531;-77
2023/10/25 06:18:25;;;;;;;26.55;14.68;;;;;;;8.65;100.00;91725.72;2128818;27;20027;-78
2023/10/25 06:19:46;;;;;;;23.33;12.40;;;;;;;8.85;100.00;91715.44;2132216;27;20106;-78
2023/10/25 06:21:05;;;;;;;25.23;13.07;;;;;;;8.76;100.00;91716.16;2132042;27;20102;-77